Latest Weather Observations for Keith West

IDS60801

Issued at 4:01 pm CDT Sunday 26 February 2017 (issued every 30 minutes, with the page automatically refreshed every 10 minutes)

About weather observations | Map of weather stations | Latest weather observations for SA | Other Formats
Station Details ID: 025557 Name: MUNKORA Lat: -36.11 Lon: 140.33 Height: 27.0 m
Data from the previous 72 hours. | See also: Recent months at Keith West
Date/Time
CDT
Temp
°C
App
Temp
°C
Dew
Point
°C
Rel
Hum
%
Delta-T
°C
Wind Press
QNH
hPa
Press
MSL
hPa
Rain since
9am
mm
Dir  Spd
km/h
Gust
km/h
Spd
kts
Gust
kts
26/04:00pm 28.7 25.5 -0.5 15 13.7 SE 6 13 3 7 1017.0 1016.9 0.0
26/03:30pm 28.6 25.5 1.2 17 13.2 S 7 13 4 7 1017.4 1017.3 0.0
26/03:00pm 28.0 25.0 2.2 19 12.6 S 7 15 4 8 1017.8 1017.7 0.0
26/02:30pm 27.0 23.9 3.5 22 11.7 SSW 9 15 5 8 1018.2 1018.1 0.0
26/02:00pm 26.8 24.2 4.0 23 11.4 SSE 7 17 4 9 1018.4 1018.3 0.0
26/01:30pm 25.1 22.9 5.3 28 10.0 S 6 11 3 6 1018.8 1018.7 0.0
26/01:00pm 24.7 23.1 6.4 31 9.5 NNW 4 9 2 5 1019.1 1019.0 0.0
26/12:30pm 23.1 21.1 6.4 34 8.5 NNW 6 9 3 5 1019.6 1019.5 0.0
26/12:00pm 22.4 20.4 6.2 35 8.2 ENE 6 13 3 7 1020.1 1020.0 0.0
26/11:30am 21.5 19.7 7.3 40 7.3 NE 6 13 3 7 1020.4 1020.3 0.0
26/11:00am 19.9 18.3 7.9 46 6.2 ESE 6 11 3 6 1020.6 1020.5 0.0
26/10:30am 19.2 18.5 8.5 50 5.5 ENE 2 9 1 5 1020.8 1020.7 0.0
26/10:00am 16.8 15.3 8.5 58 4.2 ENE 6 9 3 5 1021.0 1020.9 0.0
26/09:30am 15.8 13.9 9.0 64 3.5 ESE 9 11 5 6 1020.9 1020.8 0.0
26/09:00am 13.5 11.6 9.0 74 2.3 SE 9 13 5 7 1020.8 1020.7 0.0
26/08:30am 10.3 8.6 7.5 83 1.3 S 6 7 3 4 1021.0 1020.9 0.0
26/08:00am 7.1 5.4 5.9 92 0.5 W 4 4 2 2 1021.2 1021.1 0.0
26/07:30am 3.6 2.0 2.4 92 0.5 CALM 0 0 0 0 1021.2 1021.1 0.0
26/07:00am 2.9 1.2 1.7 92 0.5 CALM 0 0 0 0 1021.0 1020.9 0.0
26/06:30am 3.4 1.0 1.9 90 0.6 SSW 4 6 2 3 1020.7 1020.6 0.0
26/06:00am 3.6 1.9 1.6 87 0.8 CALM 0 2 0 1 1020.5 1020.4 0.0
26/05:30am 6.3 3.9 4.3 87 0.9 S 6 7 3 4 1020.2 1020.1 0.0
26/05:00am 6.1 3.1 4.3 88 0.8 SSW 9 11 5 6 1020.1 1020.0 0.0
26/04:30am 6.3 3.7 4.3 87 0.9 SSW 7 7 4 4 1020.2 1020.1 0.0
26/04:00am 7.4 5.5 5.0 85 1.1 S 4 6 2 3 1020.3 1020.2 0.0
26/03:30am 7.3 4.9 4.4 82 1.3 S 6 7 3 4 1020.6 1020.5 0.0
26/03:00am 7.6 5.1 4.7 82 1.3 S 7 7 4 4 1020.9 1020.8 0.0
26/02:30am 8.1 5.2 4.9 80 1.4 S 9 11 5 6 1020.9 1020.8 0.0
26/02:00am 8.8 6.5 4.6 75 1.9 S 6 9 3 5 1021.3 1021.2 0.0
26/01:30am 11.3 8.3 6.0 70 2.5 SSE 11 15 6 8 1021.6 1021.5 0.0
26/01:00am 11.5 8.5 5.8 68 2.7 S 11 15 6 8 1022.0 1021.9 0.0
26/12:30am 12.2 9.1 5.4 63 3.1 SSE 11 15 6 8 1022.0 1021.9 0.0
26/12:00am 13.1 9.6 5.3 59 3.6 SSE 13 17 7 9 1022.1 1022.0 0.0
 
Date/Time
CDT
Temp
°C
App
Temp
°C
Dew
Point
°C
Rel
Hum
%
Delta-T
°C
Wind Press
QNH
hPa
Press
MSL
hPa
Rain since
9am
mm
Dir  Spd
km/h
Gust
km/h
Spd
kts
Gust
kts
25/11:30pm 13.4 9.8 4.8 56 4.0 SSE 13 17 7 9 1022.3 1022.2 0.0
25/11:00pm 14.2 10.6 4.8 53 4.4 S 13 19 7 10 1022.4 1022.3 0.0
25/10:30pm 15.1 11.5 5.0 51 4.7 S 13 19 7 10 1022.3 1022.2 0.0
25/10:00pm 16.2 12.3 5.2 48 5.2 S 15 22 8 12 1022.2 1022.1 0.0
25/09:30pm 17.2 13.0 5.5 46 5.6 S 17 22 9 12 1021.8 1021.7 0.0
25/09:00pm 18.4 14.1 5.3 42 6.3 S 17 28 9 15 1021.4 1021.3 0.0
25/08:30pm 19.4 15.2 4.0 36 7.3 S 15 20 8 11 1021.2 1021.1 0.0
25/08:00pm 20.0 15.8 3.7 34 7.8 S 15 24 8 13 1020.9 1020.8 0.0
25/07:30pm 21.3 16.4 4.0 32 8.3 S 19 26 10 14 1020.7 1020.6 0.0
25/07:00pm 22.4 17.2 3.5 29 9.1 S 20 28 11 15 1020.4 1020.3 0.0
25/06:30pm 23.4 18.6 2.8 26 9.8 S 17 24 9 13 1020.5 1020.4 0.0
25/06:00pm 23.9 18.6 2.1 24 10.3 SSE 19 28 10 15 1020.5 1020.4 0.0
25/05:30pm 24.5 19.1 2.6 24 10.5 S 20 28 11 15 1020.8 1020.7 0.0
25/05:00pm 24.4 18.5 1.9 23 10.7 S 22 35 12 19 1021.0 1020.9 0.0
25/04:30pm 24.9 18.8 3.0 24 10.6 S 24 32 13 17 1021.1 1021.0 0.0
25/04:00pm 24.8 19.1 2.9 24 10.6 S 22 37 12 20 1021.4 1021.3 0.0
25/03:30pm 24.2 19.3 4.0 27 9.9 S 19 28 10 15 1021.7 1021.6 0.0
25/03:00pm 24.6 19.0 5.4 29 9.7 S 24 37 13 20 1022.1 1022.0 0.0
25/02:30pm 23.6 18.7 5.0 30 9.3 S 20 28 11 15 1022.5 1022.4 0.0
25/02:00pm 23.6 18.8 5.5 31 9.1 SSE 20 28 11 15 1022.8 1022.7 0.0
25/01:30pm 22.8 18.1 5.3 32 8.7 S 19 30 10 16 1023.3 1023.2 0.0
25/01:00pm 22.6 18.1 6.0 34 8.4 SSE 19 30 10 16 1023.6 1023.5 0.0
25/12:30pm 21.6 15.6 5.5 35 8.0 S 26 39 14 21 1024.1 1024.0 0.0
25/12:00pm 21.1 16.1 6.6 39 7.3 SSE 22 33 12 18 1024.7 1024.6 0.0
25/11:30am 19.7 15.2 7.1 44 6.4 S 20 32 11 17 1025.1 1025.0 0.0
25/11:00am 19.6 15.5 7.7 46 6.1 SSE 19 30 10 16 1025.2 1025.1 0.0
25/10:30am 19.5 14.8 7.9 47 5.9 SE 22 33 12 18 1025.5 1025.5 0.0
25/10:00am 18.1 14.5 10.0 59 4.3 SSE 19 30 10 16 1025.7 1025.7 0.0
25/09:30am 16.6 12.9 9.5 63 3.7 SSE 19 26 10 14 1025.7 1025.7 0.0
25/09:00am 16.4 13.2 9.8 65 3.4 SSE 17 22 9 12 1025.9 1025.9 0.0
25/08:30am 13.5 10.7 10.1 80 1.7 S 15 20 8 11 1025.7 1025.7 0.0
25/08:00am 11.2 9.9 9.8 91 0.7 S 7 11 4 6 1025.5 1025.5 0.0
25/07:30am 9.1 7.3 7.9 92 0.6 SSW 7 7 4 4 1025.4 1025.4 0.0
25/07:00am 8.8 7.1 7.6 92 0.6 S 6 9 3 5 1025.3 1025.3 0.0
25/06:30am 8.4 6.0 7.0 91 0.6 S 9 11 5 6 1025.5 1025.5 0.0
25/06:00am 8.9 6.2 7.5 91 0.7 SSW 11 13 6 7 1025.4 1025.4 0.0
25/05:30am 9.0 6.7 7.6 91 0.7 S 9 11 5 6 1025.0 1024.9 0.0
25/05:00am 8.7 6.0 7.2 90 0.7 S 11 13 6 7 1024.9 1024.8 0.0
25/04:30am 8.8 6.8 7.1 89 0.8 S 7 9 4 5 1024.7 1024.6 0.0
25/04:00am 9.2 7.2 7.3 88 0.9 S 7 11 4 6 1024.7 1024.6 0.0
25/03:30am 9.3 7.3 7.3 87 0.9 S 7 11 4 6 1024.7 1024.6 0.0
25/03:00am 10.3 8.1 7.7 84 1.2 S 9 13 5 7 1024.7 1024.6 0.0
25/02:30am 10.4 7.7 7.3 81 1.5 SSE 11 15 6 8 1024.9 1024.8 0.0
25/02:00am 11.1 8.8 7.6 79 1.7 S 9 17 5 9 1025.2 1025.1 0.0
25/01:30am 11.6 8.9 7.5 76 2.0 S 11 17 6 9 1025.5 1025.5 0.0
25/01:00am 11.0 8.3 7.5 79 1.7 S 11 17 6 9 1025.6 1025.6 0.0
25/12:30am 11.1 8.4 7.2 77 1.9 S 11 15 6 8 1025.7 1025.7 0.0
25/12:00am 11.7 8.7 7.6 76 2.0 SSW 13 15 7 8 1025.7 1025.7 0.0
 
Date/Time
CDT
Temp
°C
App
Temp
°C
Dew
Point
°C
Rel
Hum
%
Delta-T
°C
Wind Press
QNH
hPa
Press
MSL
hPa
Rain since
9am
mm
Dir  Spd
km/h
Gust
km/h
Spd
kts
Gust
kts
24/11:30pm 12.1 9.0 7.4 73 2.3 SSW 13 15 7 8 1025.6 1025.6 0.0
24/11:00pm 12.5 9.4 7.4 71 2.5 SSW 13 15 7 8 1025.6 1025.6 0.0
24/10:30pm 13.1 10.0 7.1 67 2.9 SSW 13 15 7 8 1025.7 1025.7 0.0
24/10:00pm 14.3 11.2 7.4 63 3.4 SSW 13 15 7 8 1025.6 1025.6 0.0
24/09:30pm 15.9 12.1 7.4 57 4.2 SSW 17 20 9 11 1025.4 1025.4 0.0
24/09:00pm 17.0 12.8 7.4 53 4.8 SSW 19 24 10 13 1025.0 1024.9 0.0
24/08:30pm 16.8 13.7 7.4 54 4.7 SSW 13 19 7 10 1024.7 1024.6 0.0
24/08:00pm 19.0 15.1 7.1 46 6.0 S 17 24 9 13 1024.4 1024.3 0.0
24/07:30pm 20.4 15.7 7.7 44 6.5 S 22 30 12 16 1024.1 1024.0 0.0
24/07:00pm 21.6 16.1 7.4 40 7.3 SSW 26 33 14 18 1023.7 1023.6 0.0
24/06:30pm 22.5 16.9 7.1 37 7.9 SSW 26 35 14 19 1023.8 1023.7 0.0
24/06:00pm 23.2 18.0 7.3 36 8.2 SSW 24 35 13 19 1023.7 1023.6 0.0
24/05:30pm 24.5 19.4 7.6 34 8.9 S 24 37 13 20 1023.5 1023.4 0.0
24/05:00pm 24.5 19.7 7.2 33 9.1 SSW 22 35 12 19 1023.3 1023.2 0.0
24/04:30pm 25.1 20.2 6.8 31 9.5 S 22 33 12 18 1023.4 1023.3 0.0
24/04:00pm 24.7 19.4 6.9 32 9.3 S 24 35 13 19 1023.7 1023.6 0.0
24/03:30pm 25.5 20.2 6.7 30 9.8 SSW 24 32 13 17 1023.7 1023.6 0.0
24/03:00pm 25.1 19.8 6.8 31 9.5 SSW 24 33 13 18 1023.8 1023.7 0.0
24/02:30pm 24.7 19.7 6.4 31 9.4 S 22 37 12 20 1024.1 1024.0 0.0
24/02:00pm 23.6 18.6 6.4 33 8.8 S 22 33 12 18 1024.4 1024.3 0.0
24/01:30pm 23.6 19.0 6.4 33 8.8 SSW 20 33 11 18 1024.8 1024.7 0.0
24/01:00pm 23.3 18.8 7.0 35 8.4 SSW 20 33 11 18 1025.2 1025.1 0.0
24/12:30pm 22.3 17.9 7.3 38 7.7 S 20 32 11 17 1025.5 1025.5 0.0
24/12:00pm 22.1 18.5 8.2 41 7.3 SSW 17 28 9 15 1025.8 1025.8 0.0
24/11:30am 21.3 17.6 7.9 42 6.9 S 17 22 9 12 1026.2 1026.2 0.0
24/11:00am 19.8 16.0 7.5 45 6.3 S 17 26 9 14 1026.6 1026.6 0.0
24/10:30am 19.4 14.6 7.5 46 6.0 S 22 33 12 18 1026.7 1026.7 0.0
24/10:00am 18.6 15.7 8.0 50 5.4 SSE 13 22 7 12 1026.6 1026.6 0.0
24/09:30am 16.8 14.6 7.7 55 4.6 SSE 9 15 5 8 1026.7 1026.7 0.0
24/09:00am 15.2 13.5 8.4 64 3.4 SSE 7 9 4 5 1026.6 1026.6 0.0
24/08:30am 11.9 11.4 9.3 84 1.3 S 2 4 1 2 1026.3 1026.3 0.0
24/08:00am 8.7 8.2 7.8 94 0.4 CALM 0 0 0 0 1026.0 1026.0 0.0
24/07:30am 5.4 3.8 4.5 94 0.4 WNW 2 7 1 4 1025.7 1025.7 0.0
24/07:00am 4.4 3.0 3.4 93 0.4 CALM 0 0 0 0 1025.2 1025.1 0.0
24/06:30am 4.0 2.5 3.0 93 0.4 CALM 0 0 0 0 1025.0 1024.9 0.0
24/06:00am 3.8 2.2 2.6 92 0.5 CALM 0 0 0 0 1024.7 1024.6 0.0
24/05:30am 4.2 2.7 3.0 92 0.5 CALM 0 2 0 1 1024.6 1024.5 0.0
24/05:00am 5.5 3.2 4.6 94 0.4 SSW 6 7 3 4 1024.2 1024.1 0.0
24/04:30am 5.2 3.8 3.7 90 0.6 CALM 0 2 0 1 1024.0 1023.9 0.0
24/04:00am 7.9 6.3 6.5 91 0.6 SSW 4 6 2 3 1024.0 1023.9 0.0
24/03:30am 6.7 4.8 5.0 89 0.7 S 4 6 2 3 1023.8 1023.7 0.0
24/03:00am 6.5 4.4 4.0 84 1.1 SSW 4 6 2 3 1023.8 1023.7 0.0
24/02:30am 9.1 7.3 7.1 87 0.9 SSW 6 7 3 4 1023.9 1023.8 0.0
24/02:00am 9.3 7.3 6.9 85 1.1 SW 7 11 4 6 1024.1 1024.0 0.0
24/01:30am 10.0 8.2 7.1 82 1.4 SSW 6 9 3 5 1024.3 1024.2 0.0
24/01:00am 10.7 8.9 7.8 82 1.4 SSW 7 11 4 6 1024.5 1024.4 0.0
24/12:30am 11.1 8.6 8.0 81 1.5 SW 11 13 6 7 1024.5 1024.4 0.0
24/12:00am 11.4 9.3 8.4 82 1.5 SW 9 11 5 6 1024.4 1024.3 0.0
 
Date/Time
CDT
Temp
°C
App
Temp
°C
Dew
Point
°C
Rel
Hum
%
Delta-T
°C
Wind Press
QNH
hPa
Press
MSL
hPa
Rain since
9am
mm
Dir  Spd
km/h
Gust
km/h
Spd
kts
Gust
kts
23/11:30pm 11.6 9.8 8.1 79 1.7 SW 7 9 4 5 1024.1 1024.0 0.0
23/11:00pm 12.5 10.2 9.0 79 1.8 SSW 11 13 6 7 1024.0 1023.9 0.0
23/10:30pm 13.2 10.5 9.1 76 2.1 SW 13 17 7 9 1024.0 1023.9 0.0
23/10:00pm 13.6 11.3 9.1 74 2.3 SW 11 15 6 8 1023.7 1023.6 0.0
23/09:30pm 14.7 12.1 9.3 70 2.8 SSW 13 17 7 9 1023.5 1023.4 0.0
23/09:00pm 15.5 12.8 9.0 65 3.3 SW 13 19 7 10 1023.1 1023.0 0.0
23/08:30pm 16.7 13.6 8.7 59 4.1 SW 15 22 8 12 1022.7 1022.6 0.0
23/08:00pm 17.4 13.9 8.8 57 4.4 SW 17 24 9 13 1022.3 1022.2 0.0
23/07:30pm 19.3 16.0 9.5 53 5.2 SW 17 22 9 12 1021.6 1021.5 0.0
23/07:00pm 20.4 17.1 9.6 50 5.8 SW 17 22 9 12 1021.3 1021.2 0.0
23/06:30pm 21.4 18.7 10.3 49 6.0 SW 15 19 8 10 1021.0 1020.9 0.0
23/06:00pm 22.3 19.8 11.1 49 6.2 SW 15 24 8 13 1020.9 1020.8 0.0
23/05:30pm 21.6 18.2 10.4 49 6.1 SW 19 26 10 14 1020.7 1020.6 0.0
23/05:00pm 21.3 18.0 10.8 51 5.8 SW 19 24 10 13 1020.5 1020.4 0.0
23/04:30pm 22.0 18.6 11.1 50 6.0 SW 20 28 11 15 1020.4 1020.3 0.0

Other Formats:

Comma delimited format used in spreadsheet applications
http://www.bom.gov.au/fwo/IDS60801/IDS60801.95815.axf

JavaScript Object Notation format (JSON) in row-major order
http://www.bom.gov.au/fwo/IDS60801/IDS60801.95815.json